UAE35 OMDB-EGNT
Flight info
| Callsign | UAE35 |
|---|---|
| Flight time | N/A |
| Altitude | 38000 |
| Route | ANVIX R401 GIDIS G783 RIGIL DCT PEKEM DCT MEDPO/N0518F280 Y511 ITRUX/N0494F380 Y511 PMA Z712 WEJ L677 RAGPU/N0487F400 L677 CVO L617 NOZ L551 ANTAR UN133 GUDIS DCT RIGRO DCT EVIVI DCT OKANA DCT BGD DCT NIVIS DCT LULIK DCT BABIT DCT ARSIN DCT DITIS DCT VARIK DCT KATCE DCT HMM DCT TENLI DCT BERGI L602 AMGOD DCT MIMVA L602 NALAX L46 RIMTO |
| Aircraft | A359/H-SDE2E3GHIJ3J4J5LM1ORWXY/LB1D1 |
Departure
| Time | 2026-05-06 04:50 |
|---|---|
| Airport | Dubai International Airport (OMDB) |
Arrival
| Time | N/A |
|---|---|
| Airport | Newcastle International Airport (EGNT) |
| Time | Latitude | Longitude | Altitude | Speed | Heading |
|---|---|---|---|---|---|
| 2026-05-06 04:27 | 25.24108 | 55.37401 | 27 ft | 0 kts | 31° |
| 2026-05-06 04:37 | 25.24094 | 55.37391 | 10 ft | 4 kts | 31° |
| 2026-05-06 04:37 | 25.24070 | 55.37376 | 0 ft | 4 kts | 31° |
| 2026-05-06 04:38 | 25.24051 | 55.37363 | 25 ft | 4 kts | 19° |
| 2026-05-06 04:38 | 25.24028 | 55.37361 | 26 ft | 4 kts | 333° |
| 2026-05-06 04:38 | 25.24009 | 55.37379 | 25 ft | 4 kts | 302° |
| 2026-05-06 04:38 | 25.23995 | 55.37403 | 25 ft | 4 kts | 302° |
| 2026-05-06 04:39 | 25.23986 | 55.37420 | 25 ft | 0 kts | 302° |
| 2026-05-06 04:42 | 25.23995 | 55.37403 | 25 ft | 7 kts | 302° |
| 2026-05-06 04:42 | 25.24031 | 55.37340 | 27 ft | 11 kts | 302° |
| 2026-05-06 04:43 | 25.24075 | 55.37262 | 27 ft | 13 kts | 302° |
| 2026-05-06 04:43 | 25.24124 | 55.37176 | 27 ft | 14 kts | 302° |
| 2026-05-06 04:43 | 25.24176 | 55.37083 | 27 ft | 15 kts | 301° |
| 2026-05-06 04:43 | 25.24231 | 55.36983 | 27 ft | 16 kts | 301° |
| 2026-05-06 04:44 | 25.24290 | 55.36878 | 27 ft | 17 kts | 302° |
| 2026-05-06 04:44 | 25.24344 | 55.36783 | 27 ft | 14 kts | 302° |
| 2026-05-06 04:44 | 25.24408 | 55.36728 | 27 ft | 12 kts | 4° |
| 2026-05-06 04:44 | 25.24483 | 55.36767 | 27 ft | 12 kts | 31° |
| 2026-05-06 04:45 | 25.24559 | 55.36819 | 27 ft | 13 kts | 32° |
| 2026-05-06 04:45 | 25.24642 | 55.36874 | 27 ft | 14 kts | 31° |
| 2026-05-06 04:45 | 25.24726 | 55.36929 | 28 ft | 14 kts | 29° |
| 2026-05-06 04:45 | 25.24805 | 55.36930 | 28 ft | 12 kts | 320° |
| 2026-05-06 04:46 | 25.24848 | 55.36846 | 28 ft | 13 kts | 290° |
| 2026-05-06 04:46 | 25.24868 | 55.36746 | 28 ft | 14 kts | 283° |
| 2026-05-06 04:46 | 25.24906 | 55.36642 | 28 ft | 15 kts | 299° |
| 2026-05-06 04:46 | 25.24962 | 55.36539 | 28 ft | 16 kts | 301° |
| 2026-05-06 04:47 | 25.25023 | 55.36431 | 28 ft | 17 kts | 302° |
| 2026-05-06 04:47 | 25.25088 | 55.36318 | 28 ft | 18 kts | 302° |
| 2026-05-06 04:47 | 25.25153 | 55.36201 | 28 ft | 19 kts | 301° |
| 2026-05-06 04:47 | 25.25224 | 55.36076 | 27 ft | 19 kts | 302° |
| 2026-05-06 04:48 | 25.25296 | 55.35947 | 27 ft | 20 kts | 302° |
| 2026-05-06 04:48 | 25.25364 | 55.35826 | 27 ft | 16 kts | 302° |
| 2026-05-06 04:48 | 25.25422 | 55.35743 | 27 ft | 12 kts | 328° |
| 2026-05-06 04:48 | 25.25496 | 55.35762 | 26 ft | 12 kts | 33° |
| 2026-05-06 04:49 | 25.25568 | 55.35812 | 27 ft | 13 kts | 32° |
| 2026-05-06 04:49 | 25.25587 | 55.35888 | 28 ft | 11 kts | 117° |
| 2026-05-06 04:49 | 25.25541 | 55.35974 | 28 ft | 23 kts | 120° |
| 2026-05-06 04:49 | 25.25342 | 55.36332 | 28 ft | 85 kts | 121° |
| 2026-05-06 04:50 | 25.24933 | 55.37071 | 31 ft | 138 kts | 121° |
| 2026-05-06 04:50 | 25.24346 | 55.38100 | 216 ft | 165 kts | 123° |
| 2026-05-06 04:50 | 25.23763 | 55.39118 | 916 ft | 157 kts | 124° |
| 2026-05-06 04:50 | 25.23178 | 55.40189 | 1269 ft | 168 kts | 124° |
| 2026-05-06 04:51 | 25.22571 | 55.41300 | 1634 ft | 172 kts | 126° |
| 2026-05-06 04:51 | 25.21917 | 55.42475 | 1847 ft | 188 kts | 126° |
| 2026-05-06 04:51 | 25.21198 | 55.43762 | 2024 ft | 207 kts | 125° |
| 2026-05-06 04:51 | 25.20404 | 55.45187 | 2229 ft | 227 kts | 124° |
| 2026-05-06 04:52 | 25.19541 | 55.46732 | 2482 ft | 245 kts | 124° |
| 2026-05-06 04:52 | 25.18613 | 55.48382 | 2823 ft | 259 kts | 123° |
| 2026-05-06 04:52 | 25.17655 | 55.50090 | 3328 ft | 265 kts | 122° |
| 2026-05-06 04:52 | 25.16675 | 55.51837 | 3887 ft | 269 kts | 122° |
| 2026-05-06 04:53 | 25.15683 | 55.53604 | 4490 ft | 272 kts | 122° |
| 2026-05-06 04:53 | 25.14679 | 55.55388 | 5080 ft | 275 kts | 122° |
| 2026-05-06 04:53 | 25.13667 | 55.57185 | 5673 ft | 277 kts | 122° |
| 2026-05-06 04:53 | 25.12663 | 55.58967 | 6261 ft | 279 kts | 122° |
| 2026-05-06 04:54 | 25.11623 | 55.60784 | 6808 ft | 281 kts | 124° |
| 2026-05-06 04:54 | 25.10356 | 55.62443 | 7360 ft | 285 kts | 133° |
| 2026-05-06 04:54 | 25.08934 | 55.64026 | 7927 ft | 288 kts | 134° |
| 2026-05-06 04:54 | 25.07503 | 55.65594 | 8505 ft | 291 kts | 134° |
| 2026-05-06 04:55 | 25.06081 | 55.67156 | 9120 ft | 293 kts | 134° |
| 2026-05-06 04:55 | 25.04632 | 55.68751 | 9750 ft | 296 kts | 134° |
| 2026-05-06 04:55 | 25.03169 | 55.70363 | 10287 ft | 302 kts | 135° |
| 2026-05-06 04:55 | 25.01649 | 55.72042 | 10569 ft | 317 kts | 134° |
| 2026-05-06 04:56 | 25.00052 | 55.73805 | 10833 ft | 331 kts | 134° |
| 2026-05-06 04:56 | 24.98390 | 55.75639 | 11077 ft | 345 kts | 134° |
| 2026-05-06 04:56 | 24.96658 | 55.77550 | 11333 ft | 358 kts | 134° |
| 2026-05-06 04:56 | 24.94833 | 55.79472 | 11575 ft | 370 kts | 140° |
| 2026-05-06 04:57 | 24.92595 | 55.80962 | 11830 ft | 381 kts | 154° |
| 2026-05-06 04:57 | 24.90153 | 55.82136 | 12227 ft | 386 kts | 156° |
| 2026-05-06 04:57 | 24.88513 | 55.82900 | 12513 ft | 388 kts | 156° |
| 2026-05-06 04:57 | 24.86040 | 55.84095 | 12945 ft | 391 kts | 153° |
| 2026-05-06 04:58 | 24.81571 | 55.88690 | 13900 ft | 396 kts | 126° |
| 2026-05-06 04:58 | 24.79816 | 55.91034 | 14276 ft | 400 kts | 135° |
| 2026-05-06 04:58 | 24.77549 | 55.92805 | 14674 ft | 403 kts | 154° |
| 2026-05-06 04:59 | 24.74854 | 55.93649 | 15069 ft | 406 kts | 172° |
| 2026-05-06 04:59 | 24.72024 | 55.93872 | 15472 ft | 409 kts | 178° |
| 2026-05-06 04:59 | 24.69170 | 55.93851 | 15868 ft | 412 kts | 181° |
| 2026-05-06 04:59 | 24.66294 | 55.93721 | 16296 ft | 414 kts | 182° |
| 2026-05-06 05:00 | 24.63413 | 55.93485 | 16692 ft | 417 kts | 188° |
| 2026-05-06 05:00 | 24.60594 | 55.92720 | 17036 ft | 422 kts | 200° |
| 2026-05-06 05:00 | 24.57981 | 55.91216 | 17397 ft | 425 kts | 214° |
| 2026-05-06 05:00 | 24.55593 | 55.89281 | 17793 ft | 428 kts | 218° |
| 2026-05-06 05:01 | 24.53309 | 55.87173 | 18195 ft | 430 kts | 221° |
| 2026-05-06 05:01 | 24.51068 | 55.84974 | 18572 ft | 432 kts | 222° |
| 2026-05-06 05:01 | 24.48840 | 55.82749 | 18913 ft | 434 kts | 222° |
| 2026-05-06 05:01 | 24.46596 | 55.80515 | 19221 ft | 437 kts | 222° |
| 2026-05-06 05:02 | 24.44330 | 55.78284 | 19630 ft | 437 kts | 222° |
| 2026-05-06 05:02 | 24.42058 | 55.76071 | 20051 ft | 437 kts | 222° |
| 2026-05-06 05:02 | 24.39767 | 55.73857 | 20415 ft | 439 kts | 222° |
| 2026-05-06 05:02 | 24.37485 | 55.71664 | 20773 ft | 441 kts | 222° |
| 2026-05-06 05:03 | 24.35150 | 55.69421 | 21169 ft | 442 kts | 222° |
| 2026-05-06 05:03 | 24.32859 | 55.67225 | 21549 ft | 444 kts | 222° |
| 2026-05-06 05:03 | 24.30531 | 55.64998 | 21926 ft | 445 kts | 222° |
| 2026-05-06 05:03 | 24.28158 | 55.62805 | 22289 ft | 448 kts | 218° |
| 2026-05-06 05:04 | 24.25513 | 55.60970 | 22601 ft | 453 kts | 208° |
| 2026-05-06 05:04 | 24.22555 | 55.59649 | 22958 ft | 456 kts | 201° |
| 2026-05-06 05:04 | 24.19588 | 55.58602 | 23270 ft | 459 kts | 198° |
| 2026-05-06 05:04 | 24.16434 | 55.57628 | 23601 ft | 462 kts | 197° |
| 2026-05-06 05:05 | 24.13367 | 55.56739 | 23899 ft | 463 kts | 197° |
| 2026-05-06 05:05 | 24.10208 | 55.55839 | 24200 ft | 464 kts | 196° |
| 2026-05-06 05:05 | 24.07076 | 55.54941 | 24518 ft | 466 kts | 197° |
| 2026-05-06 05:05 | 24.03984 | 55.54043 | 24822 ft | 467 kts | 197° |
| 2026-05-06 05:06 | 24.00839 | 55.53118 | 25156 ft | 468 kts | 197° |
| 2026-05-06 05:06 | 23.97645 | 55.52174 | 25523 ft | 470 kts | 197° |
| 2026-05-06 05:06 | 23.94498 | 55.51240 | 25892 ft | 472 kts | 197° |
| 2026-05-06 05:06 | 23.91308 | 55.50292 | 26260 ft | 474 kts | 197° |
| 2026-05-06 05:07 | 23.88167 | 55.49358 | 26618 ft | 476 kts | 197° |
| 2026-05-06 05:07 | 23.84925 | 55.48395 | 26983 ft | 478 kts | 197° |
| 2026-05-06 05:07 | 23.81758 | 55.47451 | 27347 ft | 480 kts | 197° |
| 2026-05-06 05:07 | 23.78531 | 55.46491 | 27707 ft | 482 kts | 197° |
| 2026-05-06 05:08 | 23.75290 | 55.45529 | 28065 ft | 483 kts | 198° |
| 2026-05-06 05:08 | 23.72055 | 55.44570 | 28427 ft | 485 kts | 198° |
| 2026-05-06 05:08 | 23.68777 | 55.43598 | 28771 ft | 487 kts | 198° |
| 2026-05-06 05:08 | 23.65497 | 55.42626 | 29105 ft | 489 kts | 198° |
| 2026-05-06 05:09 | 23.62205 | 55.41652 | 29427 ft | 491 kts | 198° |
| 2026-05-06 05:09 | 23.58905 | 55.40675 | 29728 ft | 493 kts | 198° |
| 2026-05-06 05:09 | 23.55592 | 55.39694 | 30013 ft | 495 kts | 198° |
| 2026-05-06 05:09 | 23.52265 | 55.38710 | 30263 ft | 496 kts | 198° |
| 2026-05-06 05:10 | 23.48928 | 55.37726 | 30510 ft | 497 kts | 198° |
| 2026-05-06 05:10 | 23.45590 | 55.36741 | 30839 ft | 496 kts | 198° |
| 2026-05-06 05:10 | 23.42265 | 55.35758 | 31236 ft | 493 kts | 198° |
| 2026-05-06 05:10 | 23.38953 | 55.34779 | 31575 ft | 492 kts | 198° |
| 2026-05-06 05:11 | 23.35654 | 55.33804 | 31906 ft | 491 kts | 198° |
| 2026-05-06 05:11 | 23.32359 | 55.32831 | 32260 ft | 490 kts | 198° |
| 2026-05-06 05:11 | 23.29074 | 55.31862 | 32616 ft | 488 kts | 198° |
| 2026-05-06 05:11 | 23.25799 | 55.30897 | 32953 ft | 487 kts | 199° |
| 2026-05-06 05:12 | 23.22543 | 55.29937 | 33281 ft | 485 kts | 199° |
| 2026-05-06 05:12 | 23.19282 | 55.28977 | 33618 ft | 484 kts | 199° |
| 2026-05-06 05:12 | 23.16040 | 55.28021 | 33933 ft | 482 kts | 199° |
| 2026-05-06 05:12 | 23.12868 | 55.26892 | 34154 ft | 479 kts | 205° |
| 2026-05-06 05:13 | 23.09862 | 55.25336 | 34304 ft | 476 kts | 213° |
| 2026-05-06 05:13 | 23.07131 | 55.23340 | 34531 ft | 473 kts | 221° |
| 2026-05-06 05:13 | 23.04724 | 55.20926 | 34750 ft | 470 kts | 230° |
| 2026-05-06 05:13 | 23.02726 | 55.18183 | 34926 ft | 468 kts | 238° |
| 2026-05-06 05:14 | 23.01119 | 55.15085 | 35112 ft | 466 kts | 246° |
| 2026-05-06 05:14 | 22.99990 | 55.11792 | 35289 ft | 466 kts | 255° |
| 2026-05-06 05:14 | 22.99507 | 55.09537 | 35412 ft | 466 kts | 260° |
| 2026-05-06 05:14 | 22.99092 | 55.06044 | 35590 ft | 466 kts | 262° |
| 2026-05-06 05:15 | 22.98340 | 55.01420 | 35839 ft | 465 kts | 259° |
| 2026-05-06 05:15 | 22.97936 | 54.99134 | 35976 ft | 465 kts | 259° |
| 2026-05-06 05:15 | 22.97308 | 54.95693 | 36179 ft | 465 kts | 258° |
| 2026-05-06 05:15 | 22.96658 | 54.92259 | 36353 ft | 465 kts | 258° |
| 2026-05-06 05:16 | 22.95990 | 54.88829 | 36518 ft | 465 kts | 258° |
| 2026-05-06 05:16 | 22.95313 | 54.85401 | 36689 ft | 465 kts | 257° |
| 2026-05-06 05:16 | 22.94630 | 54.81975 | 36836 ft | 465 kts | 257° |
| 2026-05-06 05:17 | 22.93260 | 54.75116 | 36858 ft | 464 kts | 257° |
| 2026-05-06 05:17 | 22.91898 | 54.68301 | 36859 ft | 465 kts | 257° |
| 2026-05-06 05:18 | 22.90521 | 54.61418 | 36859 ft | 465 kts | 257° |
| 2026-05-06 05:18 | 22.89148 | 54.54563 | 36859 ft | 465 kts | 257° |
| 2026-05-06 05:19 | 22.87772 | 54.47709 | 36859 ft | 465 kts | 257° |
| 2026-05-06 05:19 | 22.86394 | 54.40865 | 36858 ft | 465 kts | 257° |
| 2026-05-06 05:20 | 22.85011 | 54.34008 | 37007 ft | 466 kts | 257° |
| 2026-05-06 05:20 | 22.84318 | 54.30579 | 37196 ft | 465 kts | 257° |
| 2026-05-06 05:20 | 22.83624 | 54.27152 | 37361 ft | 465 kts | 257° |
| 2026-05-06 05:20 | 22.82931 | 54.23731 | 37526 ft | 465 kts | 257° |
| 2026-05-06 05:21 | 22.82237 | 54.20307 | 37692 ft | 464 kts | 257° |
| 2026-05-06 05:21 | 22.81543 | 54.16886 | 37827 ft | 465 kts | 257° |
| 2026-05-06 05:21 | 22.80847 | 54.13463 | 37853 ft | 467 kts | 257° |
| 2026-05-06 05:22 | 22.79441 | 54.06563 | 37853 ft | 469 kts | 257° |
| 2026-05-06 05:22 | 22.78033 | 53.99664 | 37851 ft | 469 kts | 257° |
| 2026-05-06 05:23 | 22.76663 | 53.92759 | 37851 ft | 469 kts | 258° |
| 2026-05-06 05:23 | 22.74661 | 53.82405 | 37851 ft | 468 kts | 258° |
| 2026-05-06 05:24 | 22.73315 | 53.75503 | 37848 ft | 468 kts | 257° |
| 2026-05-06 05:24 | 22.71962 | 53.68600 | 37848 ft | 468 kts | 257° |
| 2026-05-06 05:25 | 22.70605 | 53.61705 | 37848 ft | 468 kts | 257° |
| 2026-05-06 05:25 | 22.69244 | 53.54808 | 37849 ft | 468 kts | 257° |
| 2026-05-06 05:26 | 22.67882 | 53.47916 | 37845 ft | 468 kts | 257° |
| 2026-05-06 05:26 | 22.66527 | 53.41078 | 37845 ft | 466 kts | 257° |
| 2026-05-06 05:27 | 22.65165 | 53.34220 | 37842 ft | 466 kts | 257° |
| 2026-05-06 05:27 | 22.63802 | 53.27371 | 37843 ft | 466 kts | 257° |
| 2026-05-06 05:28 | 22.62433 | 53.20513 | 37846 ft | 466 kts | 257° |
| 2026-05-06 05:28 | 22.61063 | 53.13661 | 37843 ft | 466 kts | 257° |
| 2026-05-06 05:29 | 22.59691 | 53.06816 | 37845 ft | 466 kts | 257° |
| 2026-05-06 05:29 | 22.58315 | 52.99970 | 37844 ft | 466 kts | 257° |
| 2026-05-06 05:30 | 22.56937 | 52.93123 | 37845 ft | 465 kts | 257° |
| 2026-05-06 05:30 | 22.55557 | 52.86286 | 37846 ft | 465 kts | 257° |
| 2026-05-06 05:31 | 22.54173 | 52.79445 | 37843 ft | 465 kts | 257° |
| 2026-05-06 05:31 | 22.52787 | 52.72610 | 37842 ft | 465 kts | 257° |
| 2026-05-06 05:32 | 22.51397 | 52.65772 | 37842 ft | 465 kts | 257° |
| 2026-05-06 05:32 | 22.50005 | 52.58940 | 37842 ft | 465 kts | 257° |
| 2026-05-06 05:33 | 22.48610 | 52.52103 | 37833 ft | 465 kts | 257° |
| 2026-05-06 05:33 | 22.47210 | 52.45264 | 37842 ft | 466 kts | 257° |
| 2026-05-06 05:34 | 22.45809 | 52.38432 | 37843 ft | 466 kts | 257° |
| 2026-05-06 05:34 | 22.44405 | 52.31602 | 37840 ft | 466 kts | 257° |
| 2026-05-06 05:35 | 22.42995 | 52.24755 | 37836 ft | 465 kts | 257° |
| 2026-05-06 05:35 | 22.41587 | 52.17934 | 37835 ft | 465 kts | 257° |
| 2026-05-06 05:36 | 22.40817 | 52.11008 | 37835 ft | 466 kts | 270° |
| 2026-05-06 05:36 | 22.41089 | 52.04003 | 37832 ft | 467 kts | 272° |
| 2026-05-06 05:37 | 22.41536 | 51.96982 | 37836 ft | 468 kts | 272° |
| 2026-05-06 05:37 | 22.41999 | 51.89957 | 37838 ft | 468 kts | 272° |
| 2026-05-06 05:38 | 22.42432 | 51.82941 | 37837 ft | 468 kts | 272° |
| 2026-05-06 05:38 | 22.42851 | 51.75917 | 37835 ft | 469 kts | 272° |
| 2026-05-06 05:39 | 22.43267 | 51.68877 | 37834 ft | 469 kts | 272° |
| 2026-05-06 05:39 | 22.43681 | 51.61844 | 37844 ft | 469 kts | 272° |
| 2026-05-06 05:40 | 22.44091 | 51.54834 | 37836 ft | 467 kts | 272° |
| 2026-05-06 05:40 | 22.44499 | 51.47822 | 37831 ft | 467 kts | 272° |
| 2026-05-06 05:41 | 22.44903 | 51.40807 | 37840 ft | 467 kts | 272° |
| 2026-05-06 05:41 | 22.45303 | 51.33799 | 37837 ft | 467 kts | 272° |
| 2026-05-06 05:42 | 22.45702 | 51.26786 | 37840 ft | 467 kts | 272° |
| 2026-05-06 05:42 | 22.46096 | 51.19788 | 37834 ft | 467 kts | 272° |
| 2026-05-06 05:43 | 22.46488 | 51.12775 | 37843 ft | 467 kts | 272° |
| 2026-05-06 05:43 | 22.46876 | 51.05773 | 37839 ft | 467 kts | 272° |
| 2026-05-06 05:44 | 22.47261 | 50.98791 | 37844 ft | 467 kts | 271° |
| 2026-05-06 05:44 | 22.47645 | 50.91757 | 37845 ft | 467 kts | 271° |
| 2026-05-06 05:45 | 22.48025 | 50.84747 | 37844 ft | 467 kts | 271° |
| 2026-05-06 05:45 | 22.48401 | 50.77751 | 37844 ft | 466 kts | 271° |
| 2026-05-06 05:46 | 22.48774 | 50.70769 | 37844 ft | 466 kts | 271° |
| 2026-05-06 05:46 | 22.49143 | 50.63776 | 37850 ft | 466 kts | 271° |
| 2026-05-06 05:47 | 22.49510 | 50.56780 | 37856 ft | 466 kts | 271° |
| 2026-05-06 05:47 | 22.49874 | 50.49794 | 37851 ft | 466 kts | 271° |
| 2026-05-06 05:48 | 22.50232 | 50.42852 | 37847 ft | 466 kts | 271° |
| 2026-05-06 05:48 | 22.50589 | 50.35867 | 37847 ft | 466 kts | 271° |
| 2026-05-06 05:49 | 22.50944 | 50.28873 | 37850 ft | 466 kts | 271° |
| 2026-05-06 05:49 | 22.51296 | 50.21871 | 37850 ft | 466 kts | 271° |
| 2026-05-06 05:50 | 22.51645 | 50.14872 | 37856 ft | 466 kts | 271° |
| 2026-05-06 05:50 | 22.51990 | 50.07886 | 37856 ft | 466 kts | 271° |
| 2026-05-06 05:51 | 22.52333 | 50.00890 | 37843 ft | 466 kts | 271° |
| 2026-05-06 05:51 | 22.52672 | 49.93901 | 37849 ft | 466 kts | 271° |
| 2026-05-06 05:52 | 22.53009 | 49.86907 | 37856 ft | 466 kts | 271° |
| 2026-05-06 05:52 | 22.53343 | 49.79913 | 37858 ft | 465 kts | 271° |
| 2026-05-06 05:53 | 22.53742 | 49.72923 | 37858 ft | 466 kts | 273° |
| 2026-05-06 05:53 | 22.54440 | 49.65956 | 37855 ft | 466 kts | 274° |
| 2026-05-06 05:54 | 22.55178 | 49.58986 | 37853 ft | 466 kts | 274° |
| 2026-05-06 05:54 | 22.55869 | 49.52010 | 37860 ft | 466 kts | 274° |
| 2026-05-06 05:55 | 22.56530 | 49.45037 | 37862 ft | 466 kts | 274° |
| 2026-05-06 05:55 | 22.57179 | 49.38076 | 37849 ft | 465 kts | 274° |
| 2026-05-06 05:56 | 22.57827 | 49.31120 | 37862 ft | 464 kts | 274° |
| 2026-05-06 05:56 | 22.58472 | 49.24173 | 37864 ft | 465 kts | 273° |
| 2026-05-06 05:57 | 22.59115 | 49.17214 | 37862 ft | 465 kts | 273° |
| 2026-05-06 05:57 | 22.59756 | 49.10249 | 37853 ft | 465 kts | 273° |
| 2026-05-06 05:58 | 22.60394 | 49.03284 | 37857 ft | 465 kts | 273° |
| 2026-05-06 05:58 | 22.60922 | 48.97498 | 37862 ft | 465 kts | 273° |
| 2026-05-06 05:59 | 22.61554 | 48.90536 | 37871 ft | 465 kts | 273° |
| 2026-05-06 05:59 | 22.62186 | 48.83549 | 37881 ft | 465 kts | 273° |
| 2026-05-06 06:00 | 22.62812 | 48.76593 | 37872 ft | 464 kts | 273° |
| 2026-05-06 06:00 | 22.63434 | 48.69635 | 37868 ft | 464 kts | 273° |
| 2026-05-06 06:01 | 22.64050 | 48.62710 | 37869 ft | 464 kts | 273° |
| 2026-05-06 06:01 | 22.64670 | 48.55714 | 37872 ft | 464 kts | 273° |
| 2026-05-06 06:02 | 22.65283 | 48.48760 | 37873 ft | 464 kts | 273° |
| 2026-05-06 06:02 | 22.65893 | 48.41802 | 37864 ft | 464 kts | 273° |
| 2026-05-06 06:03 | 22.66501 | 48.34838 | 37870 ft | 464 kts | 272° |
| 2026-05-06 06:03 | 22.67105 | 48.27885 | 37870 ft | 464 kts | 272° |
| 2026-05-06 06:04 | 22.67707 | 48.20921 | 37867 ft | 463 kts | 272° |
| 2026-05-06 06:04 | 22.68304 | 48.13984 | 37875 ft | 463 kts | 272° |
| 2026-05-06 06:05 | 22.68897 | 48.07040 | 37858 ft | 463 kts | 272° |
| 2026-05-06 06:05 | 22.69488 | 48.00098 | 37863 ft | 463 kts | 272° |
| 2026-05-06 06:06 | 22.70072 | 47.93152 | 37876 ft | 463 kts | 272° |
| 2026-05-06 06:06 | 22.70652 | 47.86208 | 37863 ft | 463 kts | 272° |
| 2026-05-06 06:07 | 22.71230 | 47.79264 | 37869 ft | 463 kts | 272° |
| 2026-05-06 06:07 | 22.71805 | 47.72314 | 37871 ft | 463 kts | 272° |
| 2026-05-06 06:08 | 22.72378 | 47.65367 | 37879 ft | 463 kts | 272° |
| 2026-05-06 06:08 | 22.72947 | 47.58421 | 37876 ft | 462 kts | 272° |
| 2026-05-06 06:09 | 22.73511 | 47.51512 | 37877 ft | 460 kts | 272° |
| 2026-05-06 06:09 | 22.74071 | 47.44604 | 37878 ft | 460 kts | 272° |
| 2026-05-06 06:10 | 22.74627 | 47.37703 | 37882 ft | 460 kts | 272° |
| 2026-05-06 06:10 | 22.75181 | 47.30797 | 37882 ft | 461 kts | 272° |
| 2026-05-06 06:11 | 22.75732 | 47.23887 | 37886 ft | 461 kts | 272° |
| 2026-05-06 06:11 | 22.76281 | 47.16966 | 37893 ft | 461 kts | 272° |
| 2026-05-06 06:12 | 22.76828 | 47.10066 | 37888 ft | 460 kts | 272° |
| 2026-05-06 06:12 | 22.77377 | 47.03164 | 37895 ft | 458 kts | 272° |
| 2026-05-06 06:13 | 22.77916 | 46.96345 | 37899 ft | 457 kts | 272° |
| 2026-05-06 06:13 | 22.78454 | 46.89485 | 37900 ft | 456 kts | 272° |
| 2026-05-06 06:14 | 22.78987 | 46.82635 | 37900 ft | 456 kts | 272° |
| 2026-05-06 06:14 | 22.79519 | 46.75776 | 37908 ft | 456 kts | 272° |
| 2026-05-06 06:15 | 22.80047 | 46.68928 | 37914 ft | 456 kts | 272° |
| 2026-05-06 06:15 | 22.80571 | 46.62082 | 37919 ft | 456 kts | 272° |
| 2026-05-06 06:16 | 22.81095 | 46.55219 | 37923 ft | 456 kts | 271° |
| 2026-05-06 06:16 | 22.81614 | 46.48366 | 37945 ft | 457 kts | 271° |
| 2026-05-06 06:17 | 22.82130 | 46.41520 | 37929 ft | 455 kts | 271° |
| 2026-05-06 06:17 | 22.82644 | 46.34700 | 37929 ft | 454 kts | 271° |
| 2026-05-06 06:18 | 22.83149 | 46.27862 | 37932 ft | 455 kts | 271° |
| 2026-05-06 06:18 | 22.83649 | 46.21027 | 37937 ft | 455 kts | 271° |
| 2026-05-06 06:19 | 22.83898 | 46.17611 | 37932 ft | 455 kts | 271° |
| 2026-05-06 06:20 | 22.85624 | 45.93799 | 37927 ft | 455 kts | 271° |
| 2026-05-06 06:21 | 22.86114 | 45.86948 | 37925 ft | 456 kts | 270° |
| 2026-05-06 06:21 | 22.86600 | 45.80109 | 37927 ft | 456 kts | 270° |
| 2026-05-06 06:22 | 22.87083 | 45.73256 | 37927 ft | 456 kts | 270° |
| 2026-05-06 06:22 | 22.87565 | 45.66392 | 37928 ft | 457 kts | 270° |
| 2026-05-06 06:23 | 22.88043 | 45.59525 | 37927 ft | 457 kts | 270° |
| 2026-05-06 06:23 | 22.88520 | 45.52653 | 37928 ft | 458 kts | 270° |
| 2026-05-06 06:24 | 22.88994 | 45.45764 | 37930 ft | 458 kts | 270° |
| 2026-05-06 06:24 | 22.89465 | 45.38880 | 37931 ft | 458 kts | 270° |
| 2026-05-06 06:25 | 22.89934 | 45.31996 | 37933 ft | 456 kts | 270° |
| 2026-05-06 06:26 | 22.90628 | 45.21722 | 37941 ft | 455 kts | 270° |
| 2026-05-06 06:26 | 22.91085 | 45.14875 | 37941 ft | 455 kts | 270° |
| 2026-05-06 06:27 | 22.91540 | 45.08024 | 37943 ft | 455 kts | 270° |
| 2026-05-06 06:27 | 22.91987 | 45.01181 | 37941 ft | 455 kts | 270° |
| 2026-05-06 06:28 | 22.92438 | 44.94325 | 37941 ft | 455 kts | 270° |
| 2026-05-06 06:28 | 22.92885 | 44.87492 | 37944 ft | 455 kts | 270° |
| 2026-05-06 06:29 | 22.93325 | 44.80691 | 37946 ft | 455 kts | 270° |
| 2026-05-06 06:29 | 22.93764 | 44.73849 | 37952 ft | 455 kts | 270° |
| 2026-05-06 06:30 | 22.94457 | 44.66975 | 37954 ft | 459 kts | 278° |
| 2026-05-06 06:30 | 22.96237 | 44.60326 | 37968 ft | 463 kts | 283° |
| 2026-05-06 06:31 | 22.98277 | 44.53706 | 37957 ft | 462 kts | 283° |
| 2026-05-06 06:31 | 23.00344 | 44.47113 | 37955 ft | 462 kts | 283° |
| 2026-05-06 06:32 | 23.02396 | 44.40504 | 37968 ft | 461 kts | 283° |
| 2026-05-06 06:32 | 23.04421 | 44.33926 | 37958 ft | 459 kts | 283° |
| 2026-05-06 06:33 | 23.06435 | 44.27357 | 37963 ft | 458 kts | 283° |
| 2026-05-06 06:33 | 23.08444 | 44.20797 | 37966 ft | 458 kts | 283° |
| 2026-05-06 06:34 | 23.10446 | 44.14251 | 37965 ft | 456 kts | 283° |
| 2026-05-06 06:34 | 23.12441 | 44.07715 | 37965 ft | 455 kts | 283° |
| 2026-05-06 06:35 | 23.14432 | 44.01185 | 37974 ft | 455 kts | 283° |
| 2026-05-06 06:35 | 23.16406 | 43.94703 | 37972 ft | 453 kts | 283° |
| 2026-05-06 06:36 | 23.18387 | 43.88181 | 37978 ft | 452 kts | 283° |
| 2026-05-06 06:36 | 23.20354 | 43.81695 | 37992 ft | 452 kts | 283° |
| 2026-05-06 06:37 | 23.22314 | 43.75223 | 37985 ft | 450 kts | 283° |
| 2026-05-06 06:37 | 23.24266 | 43.68769 | 37989 ft | 450 kts | 282° |
| 2026-05-06 06:38 | 23.26216 | 43.62304 | 38006 ft | 450 kts | 282° |
| 2026-05-06 06:38 | 23.28160 | 43.55853 | 38006 ft | 448 kts | 282° |
| 2026-05-06 06:39 | 23.30092 | 43.49424 | 38014 ft | 447 kts | 282° |
| 2026-05-06 06:39 | 23.32028 | 43.42983 | 38031 ft | 447 kts | 282° |
| 2026-05-06 06:40 | 23.33959 | 43.36551 | 38019 ft | 447 kts | 282° |
| 2026-05-06 06:40 | 23.35885 | 43.30122 | 38025 ft | 447 kts | 282° |
| 2026-05-06 06:41 | 23.37807 | 43.23689 | 38032 ft | 447 kts | 282° |
| 2026-05-06 06:41 | 23.39728 | 43.17255 | 38039 ft | 447 kts | 282° |
| 2026-05-06 06:42 | 23.41644 | 43.10809 | 38039 ft | 447 kts | 282° |
| 2026-05-06 06:42 | 23.43554 | 43.04370 | 38049 ft | 447 kts | 282° |
| 2026-05-06 06:43 | 23.45463 | 42.97932 | 38049 ft | 447 kts | 282° |
| 2026-05-06 06:43 | 23.47369 | 42.91490 | 38049 ft | 447 kts | 282° |
| 2026-05-06 06:44 | 23.49273 | 42.85043 | 38045 ft | 447 kts | 282° |
| 2026-05-06 06:44 | 23.51171 | 42.78602 | 38045 ft | 447 kts | 282° |
| 2026-05-06 06:45 | 23.53067 | 42.72152 | 38042 ft | 447 kts | 282° |
| 2026-05-06 06:45 | 23.54964 | 42.65710 | 38049 ft | 447 kts | 282° |
| 2026-05-06 06:46 | 23.56860 | 42.59259 | 38073 ft | 446 kts | 282° |
| 2026-05-06 06:46 | 23.57509 | 42.57043 | 38097 ft | 446 kts | 281° |